Grudziadz, Poland
Current Conditions -  °F | °C
As of 1:30 AM on Saturday 20 Dec 2014 (Local Time) from EPBY Reporting Station
Scattered Clouds Scattered Clouds  
Wind Chill: 34°   Ceiling: Unl
Heat Index: 41°   Visibility: 6mi
Dew Point: 37°   Wind: 13mph
Humidity: 87%   Direction: 240°WSW
Pressure: 29.71"   Gusts: NA
Location:  53.49°N, 18.75°E
Report Text: EPBY 192330Z 24011KT 9999 SCT030 05/03 Q1006
Loading
Personal Weather Stations






























Interactive Weather Map New forecast layout! Learn more

10-Day Weather Forecast

Advertisements
Track Severe Weather on mobile